Address 0x7858a4c42c619a68df6e95df7235a9ec6f0308b9 1

Txn Hash Method
Block
From
To
Value [Txn Fee]
0x7668b625e530b501b69640c5f80ae363fc84eaa3a376ebe2b52e05e195d10059Liquidate Positi...228749582022-11-26 18:00:3132 mins ago0x7858a4c42c619a68df6e95df7235a9ec6f0308b9OUT GMX: Position Manager0 AVAX0.0134356325 26.5
0xdfb458a8795b06e782cc9e83f73f939ae4b86bd1c2da5051bba643fcd202bc4aLiquidate Positi...228731852022-11-26 16:59:491 hr 33 mins ago0x7858a4c42c619a68df6e95df7235a9ec6f0308b9OUT GMX: Position Manager0 AVAX0.0131141875 26.5
0xf535e4765cb6ad479049dbc22c5f44043e9e436067956a367f4f4856bb4b3dbeLiquidate Positi...228691732022-11-26 14:42:313 hrs 50 mins ago0x7858a4c42c619a68df6e95df7235a9ec6f0308b9OUT GMX: Position Manager0 AVAX0.0145828705 26.5
0xa39ce80d68c69cdd3a585094bcb05e398bc88dfc85d648a9ac2bd856f0941278Liquidate Positi...228571372022-11-26 7:40:5110 hrs 52 mins ago0x7858a4c42c619a68df6e95df7235a9ec6f0308b9OUT GMX: Position Manager0 AVAX0.013237121 26.5
0x101d38bb70777f8af706e565092248700f0f349a2d619b6c8d6a9720d05ff81cLiquidate Positi...228511872022-11-26 4:09:0814 hrs 24 mins ago0x7858a4c42c619a68df6e95df7235a9ec6f0308b9OUT GMX: Position Manager0 AVAX0.011446092 26.5
0x1a04dbb2ddb5b0131f43bafe33b66dcc23ccfe5e3a714ca810a24c21ce542479Liquidate Positi...228479602022-11-26 2:15:1116 hrs 18 mins ago0x7858a4c42c619a68df6e95df7235a9ec6f0308b9OUT GMX: Position Manager0 AVAX0.014637381 26.5
0xd5e82fae36edad1c1d94fedaab1283655aa84992d45f4483b9223ce68e2744cdLiquidate Positi...228479332022-11-26 2:14:1016 hrs 19 mins ago0x7858a4c42c619a68df6e95df7235a9ec6f0308b9OUT GMX: Position Manager0 AVAX0.014933068 26.5
0x306bb1e52a644a5b34ee2a45ad7a365cc4d47b71d67479415bb865bc13aada6fLiquidate Positi...228464902022-11-26 1:23:5817 hrs 9 mins ago0x7858a4c42c619a68df6e95df7235a9ec6f0308b9OUT GMX: Position Manager0 AVAX0.014479918 26.5
0x5e8ab62cb63cdc7f8565abfc629deb16f8b55766141d006b2b65968ae3eef3eeLiquidate Positi...228464792022-11-26 1:23:3517 hrs 9 mins ago0x7858a4c42c619a68df6e95df7235a9ec6f0308b9OUT GMX: Position Manager0 AVAX0.0132671455 26.5
0x245197710c59d955557671ecd2ad0e0c2780d1ec14bbe43e67c102f2b8b40e74Liquidate Positi...228464752022-11-26 1:23:2617 hrs 9 mins ago0x7858a4c42c619a68df6e95df7235a9ec6f0308b9OUT GMX: Position Manager0 AVAX0.014478646 26.5
0xcfcc931e665c09935ba3b1b16708efba37ce5464df9e9e03de3c3b58b8528a44Liquidate Positi...228464612022-11-26 1:23:0017 hrs 10 mins ago0x7858a4c42c619a68df6e95df7235a9ec6f0308b9OUT GMX: Position Manager0 AVAX0.0133351975 26.5
0x960076621732b7e85e0ca18696c1671e70e99465efef1eae05303af029bc024fLiquidate Positi...228464592022-11-26 1:22:5617 hrs 10 mins ago0x7858a4c42c619a68df6e95df7235a9ec6f0308b9OUT GMX: Position Manager0 AVAX0.0133597895 26.5
0x65b59474353ec8060e799c990f11d5b3c46e6c7ca41ea7fa578d1c16ada0c537Liquidate Positi...228464572022-11-26 1:22:5217 hrs 10 mins ago0x7858a4c42c619a68df6e95df7235a9ec6f0308b9OUT GMX: Position Manager0 AVAX0.014633035 26.5
0x2fa433f97853666448241afcc54b67ef44f181928c61a0ceaecfdb96f4201584Liquidate Positi...228464552022-11-26 1:22:4817 hrs 10 mins ago0x7858a4c42c619a68df6e95df7235a9ec6f0308b9OUT GMX: Position Manager0 AVAX0.0150360205 26.5
0x2d23333623616dd8249395448a3379a73a8ba90dcffea49cecd57c3c648dd7a7Liquidate Positi...228463742022-11-26 1:20:1017 hrs 13 mins ago0x7858a4c42c619a68df6e95df7235a9ec6f0308b9OUT GMX: Position Manager0 AVAX0.0150360205 26.5
0x124b6001357b7e7f7a48d2106721f840e6c83ef25b03d94e3376dccaddd7e732Liquidate Positi...228462212022-11-26 1:14:5017 hrs 18 mins ago0x7858a4c42c619a68df6e95df7235a9ec6f0308b9OUT GMX: Position Manager0 AVAX0.0150360205 26.5
0x6816c91f22af07bf6b9eaa59b61e7cc6b8f92b63f5eaa5bee047ac0d7421aff9Liquidate Positi...228461832022-11-26 1:13:3117 hrs 19 mins ago0x7858a4c42c619a68df6e95df7235a9ec6f0308b9OUT GMX: Position Manager0 AVAX0.014933068 26.5
0xd436410afd1256f81a6c2fede25fbd4f9b4cc32448cfd872b9cf3c42e870cc9bLiquidate Positi...228461442022-11-26 1:12:0917 hrs 21 mins ago0x7858a4c42c619a68df6e95df7235a9ec6f0308b9OUT GMX: Position Manager0 AVAX0.0145828705 26.5
0xeb62f6b83ef2286279663bec39a48bda5f0c26a39299afbde2dd68d2346d4b01Liquidate Positi...228461192022-11-26 1:11:1817 hrs 21 mins ago0x7858a4c42c619a68df6e95df7235a9ec6f0308b9OUT GMX: Position Manager0 AVAX0.0133601075 26.5
0x6b7f4ca87ddaa88eab16f48256278af034149b54b50e1668940ee76511cdc93fLiquidate Positi...228461072022-11-26 1:10:5417 hrs 22 mins ago0x7858a4c42c619a68df6e95df7235a9ec6f0308b9OUT GMX: Position Manager0 AVAX0.0132671455 26.5
0x4bcc5c317aefc9e8e4bb1309dda9f5ebf60bcd663d8f63c4a9f5e99d31dc25a3Liquidate Positi...228460652022-11-26 1:09:2417 hrs 23 mins ago0x7858a4c42c619a68df6e95df7235a9ec6f0308b9OUT GMX: Position Manager0 AVAX0.015104682 26.5
0x89a37fd7d86266d870ca0e19777508feb6e786cafbe706b36800cffc51ef2477Liquidate Positi...228460632022-11-26 1:09:1917 hrs 23 mins ago0x7858a4c42c619a68df6e95df7235a9ec6f0308b9OUT GMX: Position Manager0 AVAX0.015104682 26.5
0x2bb0f5c310aa77d5658e88a9c9d537e7ffa5060b3afe54e18c62e6c8867e46c9Liquidate Positi...228459222022-11-26 1:04:3117 hrs 28 mins ago0x7858a4c42c619a68df6e95df7235a9ec6f0308b9OUT GMX: Position Manager0 AVAX0.012902797 26.5
0x11eb4828b32be15a8008a6f04ec83f3395dedf657f337ee31a8619e6cb07e5d7Liquidate Positi...228452092022-11-26 0:38:5617 hrs 54 mins ago0x7858a4c42c619a68df6e95df7235a9ec6f0308b9OUT GMX: Position Manager0 AVAX0.012995759 26.5
0xe8b65cd7e2f7f4169c59970c1e69292af0d2c0b282ab0316afbf3c6dd442289fLiquidate Positi...228452062022-11-26 0:38:5017 hrs 54 mins ago0x7858a4c42c619a68df6e95df7235a9ec6f0308b9OUT GMX: Position Manager0 AVAX0.0150360205 26.5
[ Download CSV Export 
Parent Txn Hash Block From To Value
Loading

Contract Name:
0

Compiler Version
0

Optimization Enabled:
0

Other Settings:
-NA-
Block Transaction Gas Used Reward
Age Block Fee Address BC Fee Address Voting Power Jailed Incoming
Block Uncle Number Difficulty Gas Used Reward
Loading
Make sure to use the "Vote Down" button for any spammy posts, and the "Vote Up" for interesting conversations.